SHU313 UHHH-ZBAA
Flight info
| Callsign | SHU313 |
|---|---|
| Flight time | N/A |
| Altitude | 34000 |
| Route | RANOL B150 BIRBO B723 ODEKA T634 MAGIT/K0837S1035 R213 JMU G212 UKDUM W49 OSUBA |
| Aircraft | A320/M-SDE3FGHIRWY/LB1 |
Departure
| Time | N/A |
|---|---|
| Airport | Khabarovsk Novy Airport (UHHH) |
Arrival
| Time | 2026-05-06 01:22 |
|---|---|
| Airport | Beijing Capital International Airport (ZBAA) |
| Time | Latitude | Longitude | Altitude | Speed | Heading |
|---|---|---|---|---|---|
| 2026-05-06 01:08 | 39.84249 | 116.76851 | 5991 ft | 264 kts | 173° |
| 2026-05-06 01:08 | 39.82424 | 116.77133 | 5866 ft | 264 kts | 173° |
| 2026-05-06 01:08 | 39.80602 | 116.77414 | 5742 ft | 263 kts | 173° |
| 2026-05-06 01:09 | 39.78791 | 116.77692 | 5605 ft | 261 kts | 174° |
| 2026-05-06 01:09 | 39.76988 | 116.77965 | 5491 ft | 261 kts | 174° |
| 2026-05-06 01:09 | 39.75186 | 116.78237 | 5367 ft | 260 kts | 174° |
| 2026-05-06 01:09 | 39.73390 | 116.78509 | 5242 ft | 260 kts | 174° |
| 2026-05-06 01:10 | 39.71593 | 116.78777 | 5123 ft | 260 kts | 176° |
| 2026-05-06 01:10 | 39.69854 | 116.78448 | 4997 ft | 249 kts | 210° |
| 2026-05-06 01:10 | 39.68635 | 116.77017 | 4842 ft | 231 kts | 245° |
| 2026-05-06 01:10 | 39.68204 | 116.75084 | 4631 ft | 219 kts | 269° |
| 2026-05-06 01:11 | 39.68033 | 116.73138 | 4427 ft | 215 kts | 268° |
| 2026-05-06 01:11 | 39.67863 | 116.71218 | 4229 ft | 212 kts | 270° |
| 2026-05-06 01:11 | 39.68041 | 116.69400 | 4042 ft | 199 kts | 298° |
| 2026-05-06 01:11 | 39.68852 | 116.68027 | 3896 ft | 189 kts | 326° |
| 2026-05-06 01:12 | 39.69995 | 116.67382 | 3831 ft | 173 kts | 351° |
| 2026-05-06 01:12 | 39.71138 | 116.67202 | 3743 ft | 163 kts | 353° |
| 2026-05-06 01:12 | 39.72234 | 116.67031 | 3657 ft | 154 kts | 352° |
| 2026-05-06 01:12 | 39.73265 | 116.66871 | 3570 ft | 145 kts | 353° |
| 2026-05-06 01:13 | 39.74250 | 116.66717 | 3512 ft | 142 kts | 352° |
| 2026-05-06 01:13 | 39.75227 | 116.66565 | 3454 ft | 141 kts | 352° |
| 2026-05-06 01:13 | 39.76199 | 116.66413 | 3383 ft | 140 kts | 352° |
| 2026-05-06 01:13 | 39.77169 | 116.66260 | 3304 ft | 142 kts | 349° |
| 2026-05-06 01:14 | 39.79120 | 116.65958 | 3173 ft | 142 kts | 353° |
| 2026-05-06 01:14 | 39.80112 | 116.65802 | 3116 ft | 143 kts | 352° |
| 2026-05-06 01:14 | 39.81086 | 116.65651 | 3059 ft | 138 kts | 354° |
| 2026-05-06 01:15 | 39.82061 | 116.65498 | 2983 ft | 144 kts | 351° |
| 2026-05-06 01:15 | 39.83064 | 116.65341 | 2910 ft | 142 kts | 353° |
| 2026-05-06 01:15 | 39.84046 | 116.65190 | 2848 ft | 141 kts | 353° |
| 2026-05-06 01:15 | 39.85011 | 116.65039 | 2781 ft | 139 kts | 354° |
| 2026-05-06 01:16 | 39.85968 | 116.64889 | 2723 ft | 138 kts | 353° |
| 2026-05-06 01:16 | 39.86923 | 116.64740 | 2648 ft | 138 kts | 354° |
| 2026-05-06 01:16 | 39.87867 | 116.64592 | 2590 ft | 138 kts | 354° |
| 2026-05-06 01:16 | 39.88815 | 116.64443 | 2559 ft | 138 kts | 354° |
| 2026-05-06 01:17 | 39.89766 | 116.64294 | 2481 ft | 138 kts | 354° |
| 2026-05-06 01:17 | 39.90715 | 116.64147 | 2392 ft | 137 kts | 354° |
| 2026-05-06 01:17 | 39.91658 | 116.63998 | 2336 ft | 136 kts | 353° |
| 2026-05-06 01:17 | 39.92608 | 116.63850 | 2272 ft | 137 kts | 354° |
| 2026-05-06 01:18 | 39.93549 | 116.63703 | 2197 ft | 136 kts | 354° |
| 2026-05-06 01:18 | 39.94488 | 116.63557 | 2155 ft | 137 kts | 354° |
| 2026-05-06 01:18 | 39.95430 | 116.63408 | 2055 ft | 136 kts | 355° |
| 2026-05-06 01:18 | 39.96369 | 116.63261 | 1918 ft | 136 kts | 354° |
| 2026-05-06 01:19 | 39.97305 | 116.63114 | 1761 ft | 136 kts | 354° |
| 2026-05-06 01:19 | 39.98236 | 116.62968 | 1600 ft | 135 kts | 354° |
| 2026-05-06 01:19 | 39.99170 | 116.62821 | 1412 ft | 135 kts | 354° |
| 2026-05-06 01:19 | 40.00096 | 116.62676 | 1234 ft | 133 kts | 354° |
| 2026-05-06 01:20 | 40.01016 | 116.62532 | 1052 ft | 133 kts | 354° |
| 2026-05-06 01:20 | 40.01948 | 116.62386 | 883 ft | 138 kts | 353° |
| 2026-05-06 01:20 | 40.02890 | 116.62237 | 705 ft | 135 kts | 352° |
| 2026-05-06 01:20 | 40.03826 | 116.62086 | 542 ft | 136 kts | 353° |
| 2026-05-06 01:21 | 40.04765 | 116.61943 | 364 ft | 137 kts | 354° |
| 2026-05-06 01:21 | 40.05713 | 116.61789 | 204 ft | 137 kts | 353° |
| 2026-05-06 01:21 | 40.06636 | 116.61644 | 120 ft | 125 kts | 353° |
| 2026-05-06 01:21 | 40.07339 | 116.61534 | 114 ft | 64 kts | 353° |
| 2026-05-06 01:22 | 40.07542 | 116.61500 | 114 ft | 17 kts | 353° |
| 2026-05-06 01:22 | 40.07664 | 116.61480 | 114 ft | 18 kts | 353° |
| 2026-05-06 01:22 | 40.07791 | 116.61435 | 113 ft | 20 kts | 338° |
| 2026-05-06 01:22 | 40.07904 | 116.61345 | 113 ft | 16 kts | 324° |
| 2026-05-06 01:23 | 40.07966 | 116.61263 | 113 ft | 13 kts | 274° |
| 2026-05-06 01:23 | 40.07957 | 116.61148 | 114 ft | 12 kts | 263° |
| 2026-05-06 01:23 | 40.07893 | 116.61095 | 114 ft | 13 kts | 177° |
| 2026-05-06 01:23 | 40.07817 | 116.61107 | 114 ft | 11 kts | 174° |
| 2026-05-06 01:24 | 40.07766 | 116.61113 | 114 ft | 7 kts | 180° |
| 2026-05-06 01:24 | 40.07729 | 116.61091 | 114 ft | 7 kts | 229° |
| 2026-05-06 01:24 | 40.07729 | 116.61026 | 113 ft | 10 kts | 330° |
| 2026-05-06 01:24 | 40.07777 | 116.60985 | 112 ft | 4 kts | 325° |
| 2026-05-06 01:25 | 40.07783 | 116.60979 | 112 ft | 0 kts | 321° |